createdAt,value
2018-04-20T00:00:41.941Z,1015.47
2018-04-20T00:01:41.976Z,1015.43
2018-04-20T00:02:41.875Z,1015.44
2018-04-20T00:03:41.982Z,1015.47
2018-04-20T00:04:41.995Z,1015.46
2018-04-20T00:05:41.987Z,1015.46
2018-04-20T00:06:41.999Z,1015.46
2018-04-20T00:07:41.921Z,1015.45
2018-04-20T00:08:41.993Z,1015.44
2018-04-20T00:09:41.967Z,1015.44
2018-04-20T00:10:41.929Z,1015.41
2018-04-20T00:11:41.999Z,1015.41
2018-04-20T00:12:41.984Z,1015.43
2018-04-20T00:13:41.895Z,1015.40
2018-04-20T00:14:41.911Z,1015.46
2018-04-20T00:15:41.893Z,1015.39
2018-04-20T00:16:41.970Z,1015.38
2018-04-20T00:17:41.973Z,1015.40
2018-04-20T00:18:41.933Z,1015.37
2018-04-20T00:19:41.958Z,1015.37
2018-04-20T00:20:41.977Z,1015.37
2018-04-20T00:21:41.918Z,1015.38
2018-04-20T00:22:41.989Z,1015.37
2018-04-20T00:23:41.942Z,1015.34
2018-04-20T00:24:41.941Z,1015.38
2018-04-20T00:25:41.978Z,1015.37
2018-04-20T00:26:41.971Z,1015.32
2018-04-20T00:27:41.970Z,1015.31
2018-04-20T00:28:41.966Z,1015.33
2018-04-20T00:29:41.909Z,1015.27
2018-04-20T00:30:42.002Z,1015.29
2018-04-20T00:31:41.940Z,1015.22
2018-04-20T00:32:41.890Z,1015.25
2018-04-20T00:33:42.008Z,1015.26
2018-04-20T00:34:42.009Z,1015.27
2018-04-20T00:35:41.951Z,1015.25
2018-04-20T00:36:41.937Z,1015.23
2018-04-20T00:37:41.939Z,1015.20
2018-04-20T00:38:41.984Z,1015.26
2018-04-20T00:39:41.900Z,1015.20
2018-04-20T00:40:41.899Z,1015.21
2018-04-20T00:41:42.008Z,1015.20
2018-04-20T00:42:41.950Z,1015.20
2018-04-20T00:43:41.990Z,1015.16
2018-04-20T00:44:41.915Z,1015.17
2018-04-20T00:45:41.917Z,1015.13
2018-04-20T00:46:41.988Z,1015.11
2018-04-20T00:47:41.986Z,1015.07
2018-04-20T00:48:41.918Z,1015.10
2018-04-20T00:49:41.986Z,1015.05
2018-04-20T00:50:41.917Z,1015.03
2018-04-20T00:51:41.918Z,1015.05
2018-04-20T00:52:41.990Z,1015.03
2018-04-20T00:53:42.021Z,1015.02
2018-04-20T00:54:41.989Z,1015.03
2018-04-20T00:55:42.027Z,1015.06
2018-04-20T00:56:42.020Z,1015.02
2018-04-20T00:57:42.000Z,1015.03
2018-04-20T00:58:41.997Z,1015.05
2018-04-20T00:59:41.974Z,1015.07
2018-04-20T01:00:41.999Z,1015.02
2018-04-20T01:01:41.958Z,1015.02
2018-04-20T01:02:41.994Z,1015.06
2018-04-20T01:03:41.916Z,1015.01
2018-04-20T01:04:41.945Z,1015.04
2018-04-20T01:05:41.952Z,1015.01
2018-04-20T01:06:41.918Z,1015.04
2018-04-20T01:07:41.965Z,1015.04
2018-04-20T01:08:41.855Z,1015.01
2018-04-20T01:09:41.948Z,1014.98
2018-04-20T01:10:41.913Z,1015.00
2018-04-20T01:11:41.918Z,1015.04
2018-04-20T01:12:41.914Z,1015.01
2018-04-20T01:13:42.019Z,1014.97
2018-04-20T01:14:41.930Z,1014.99
2018-04-20T01:15:42.008Z,1015.00
2018-04-20T01:16:41.939Z,1014.96
2018-04-20T01:17:42.007Z,1015.01
2018-04-20T01:18:41.998Z,1015.02
2018-04-20T01:19:41.935Z,1015.01
2018-04-20T01:20:41.931Z,1014.96
2018-04-20T01:21:41.935Z,1014.96
2018-04-20T01:22:42.013Z,1014.97
2018-04-20T01:23:41.976Z,1014.98
2018-04-20T01:24:41.983Z,1014.95
2018-04-20T01:25:42.005Z,1014.97
2018-04-20T01:26:41.947Z,1014.96
2018-04-20T01:27:41.927Z,1014.95
2018-04-20T01:28:42.035Z,1015.01
2018-04-20T01:29:42.048Z,1015.00
2018-04-20T01:30:42.039Z,1015.00
2018-04-20T01:31:41.986Z,1015.00
2018-04-20T01:32:41.949Z,1015.05
2018-04-20T01:33:42.017Z,1015.00
2018-04-20T01:34:42.049Z,1014.96
2018-04-20T01:35:41.947Z,1014.98
2018-04-20T01:36:42.038Z,1014.99
2018-04-20T01:37:42.011Z,1015.02
2018-04-20T01:38:42.039Z,1014.97
2018-04-20T01:39:42.086Z,1014.97
2018-04-20T01:40:42.027Z,1014.98
2018-04-20T01:41:41.919Z,1014.98
2018-04-20T01:42:42.040Z,1014.99
2018-04-20T01:43:42.079Z,1014.98
2018-04-20T01:44:42.037Z,1014.98
2018-04-20T01:45:41.953Z,1014.98
2018-04-20T01:46:42.017Z,1014.97
2018-04-20T01:47:41.987Z,1014.94
2018-04-20T01:48:42.042Z,1015.00
2018-04-20T01:49:42.012Z,1014.96
2018-04-20T01:50:42.020Z,1014.98
2018-04-20T01:51:41.938Z,1014.95
2018-04-20T01:52:41.996Z,1014.99
2018-04-20T01:53:42.021Z,1014.93
2018-04-20T01:54:41.945Z,1014.96
2018-04-20T01:55:42.023Z,1014.98
2018-04-20T01:56:41.961Z,1014.98
2018-04-20T01:57:42.018Z,1014.94
2018-04-20T01:58:41.950Z,1014.91
2018-04-20T01:59:42.022Z,1014.92
2018-04-20T02:00:41.947Z,1014.93
2018-04-20T02:01:42.020Z,1014.90
2018-04-20T02:02:41.954Z,1014.90
2018-04-20T02:03:41.957Z,1014.88
2018-04-20T02:04:41.960Z,1014.94
2018-04-20T02:05:42.038Z,1014.92
2018-04-20T02:06:41.923Z,1014.89
2018-04-20T02:07:41.961Z,1014.90
2018-04-20T02:08:41.963Z,1014.92
2018-04-20T02:09:42.037Z,1014.88
2018-04-20T02:10:42.042Z,1014.90
2018-04-20T02:11:41.965Z,1014.90
2018-04-20T02:12:42.040Z,1014.86
2018-04-20T02:13:41.994Z,1014.84
2018-04-20T02:14:42.057Z,1014.85
2018-04-20T02:15:42.043Z,1014.85
2018-04-20T02:16:41.954Z,1014.83
2018-04-20T02:17:42.001Z,1014.84
2018-04-20T02:18:42.075Z,1014.84
2018-04-20T02:19:41.963Z,1014.83
2018-04-20T02:20:42.064Z,1014.82
2018-04-20T02:21:42.005Z,1014.84
2018-04-20T02:22:41.961Z,1014.82
2018-04-20T02:23:41.933Z,1014.85
2018-04-20T02:24:42.049Z,1014.82
2018-04-20T02:25:42.048Z,1014.82
2018-04-20T02:26:42.055Z,1014.81
2018-04-20T02:27:42.054Z,1014.82
2018-04-20T02:28:41.980Z,1014.80
2018-04-20T02:29:42.052Z,1014.79
2018-04-20T02:30:41.978Z,1014.83
2018-04-20T02:31:42.054Z,1014.81
2018-04-20T02:32:41.996Z,1014.79
2018-04-20T02:33:42.016Z,1014.83
2018-04-20T02:34:42.071Z,1014.79
2018-04-20T02:35:41.971Z,1014.78
2018-04-20T02:36:41.956Z,1014.78
2018-04-20T02:37:42.090Z,1014.78
2018-04-20T02:38:42.118Z,1014.79
2018-04-20T02:39:42.068Z,1014.77
2018-04-20T02:40:41.971Z,1014.78
2018-04-20T02:41:41.998Z,1014.81
2018-04-20T02:42:42.054Z,1014.74
2018-04-20T02:43:42.009Z,1014.77
2018-04-20T02:44:42.063Z,1014.77
2018-04-20T02:45:41.989Z,1014.72
2018-04-20T02:46:42.070Z,1014.78
2018-04-20T02:47:42.026Z,1014.80
2018-04-20T02:48:42.065Z,1014.79
2018-04-20T02:49:42.069Z,1014.77
2018-04-20T02:50:41.990Z,1014.80
2018-04-20T02:51:42.072Z,1014.79
2018-04-20T02:52:42.068Z,1014.79
2018-04-20T02:53:42.062Z,1014.80
2018-04-20T02:54:42.063Z,1014.76
2018-04-20T02:55:42.060Z,1014.77
2018-04-20T02:56:42.131Z,1014.77
2018-04-20T02:57:42.097Z,1014.76
2018-04-20T02:58:42.139Z,1014.76
2018-04-20T02:59:42.031Z,1014.73
2018-04-20T03:00:42.076Z,1014.73
2018-04-20T03:01:42.098Z,1014.71
2018-04-20T03:02:42.128Z,1014.73
2018-04-20T03:03:42.041Z,1014.74
2018-04-20T03:04:42.134Z,1014.75
2018-04-20T03:05:42.073Z,1014.72
2018-04-20T03:06:42.100Z,1014.70
2018-04-20T03:07:42.069Z,1014.73
2018-04-20T03:08:42.141Z,1014.73
2018-04-20T03:09:42.099Z,1014.71
2018-04-20T03:10:42.011Z,1014.67
2018-04-20T03:11:41.992Z,1014.68
2018-04-20T03:12:42.054Z,1014.66
2018-04-20T03:13:42.040Z,1014.64
2018-04-20T03:14:41.998Z,1014.67
2018-04-20T03:15:42.075Z,1014.64
2018-04-20T03:16:42.092Z,1014.63
2018-04-20T03:17:41.981Z,1014.65
2018-04-20T03:18:42.110Z,1014.64
2018-04-20T03:19:42.082Z,1014.64
2018-04-20T03:20:42.043Z,1014.66
2018-04-20T03:21:42.078Z,1014.60
2018-04-20T03:22:42.080Z,1014.60
2018-04-20T03:23:42.003Z,1014.62
2018-04-20T03:24:42.076Z,1014.59
2018-04-20T03:25:42.003Z,1014.63
2018-04-20T03:26:42.082Z,1014.61
2018-04-20T03:27:42.077Z,1014.58
2018-04-20T03:28:42.076Z,1014.61
2018-04-20T03:29:42.008Z,1014.57
2018-04-20T03:30:42.008Z,1014.62
2018-04-20T03:31:42.079Z,1014.59
2018-04-20T03:32:42.008Z,1014.59
2018-04-20T03:33:42.088Z,1014.57
2018-04-20T03:34:42.063Z,1014.61
2018-04-20T03:35:42.026Z,1014.58
2018-04-20T03:36:42.014Z,1014.58
2018-04-20T03:37:42.055Z,1014.57
2018-04-20T03:38:42.059Z,1014.59
2018-04-20T03:39:42.091Z,1014.55
2018-04-20T03:40:42.103Z,1014.58
2018-04-20T03:41:42.125Z,1014.59
2018-04-20T03:42:42.130Z,1014.61
2018-04-20T03:43:42.103Z,1014.59
2018-04-20T03:44:42.103Z,1014.57
2018-04-20T03:45:42.026Z,1014.58
2018-04-20T03:46:42.106Z,1014.61
2018-04-20T03:47:42.107Z,1014.60
2018-04-20T03:48:42.103Z,1014.57
2018-04-20T03:49:41.998Z,1014.59
2018-04-20T03:50:42.105Z,1014.59
2018-04-20T03:51:42.102Z,1014.60
2018-04-20T03:52:42.106Z,1014.60
2018-04-20T03:53:42.032Z,1014.61
2018-04-20T03:54:42.032Z,1014.60
2018-04-20T03:55:42.032Z,1014.60
2018-04-20T03:56:42.038Z,1014.62
2018-04-20T03:57:42.036Z,1014.59
2018-04-20T03:58:42.036Z,1014.57
2018-04-20T03:59:42.112Z,1014.58
2018-04-20T04:00:42.148Z,1014.60
2018-04-20T04:01:42.114Z,1014.53
2018-04-20T04:02:42.113Z,1014.54
2018-04-20T04:03:42.027Z,1014.56
2018-04-20T04:04:42.098Z,1014.53
2018-04-20T04:05:42.035Z,1014.55
2018-04-20T04:06:42.113Z,1014.59
2018-04-20T04:07:42.030Z,1014.55
2018-04-20T04:08:42.106Z,1014.55
2018-04-20T04:09:42.035Z,1014.53
2018-04-20T04:10:42.105Z,1014.57
2018-04-20T04:11:42.031Z,1014.60
2018-04-20T04:12:42.127Z,1014.56
2018-04-20T04:13:42.083Z,1014.57
2018-04-20T04:14:42.148Z,1014.51
2018-04-20T04:15:42.250Z,1014.53
2018-04-20T04:16:42.090Z,1014.54
2018-04-20T04:17:42.249Z,1014.53
2018-04-20T04:18:42.100Z,1014.54
2018-04-20T04:19:42.031Z,1014.56
2018-04-20T04:20:42.022Z,1014.55
2018-04-20T04:21:42.078Z,1014.54
2018-04-20T04:22:42.054Z,1014.54
2018-04-20T04:23:42.079Z,1014.54
2018-04-20T04:24:42.094Z,1014.56
2018-04-20T04:25:42.160Z,1014.57
2018-04-20T04:26:42.094Z,1014.53
2018-04-20T04:27:42.090Z,1014.57
2018-04-20T04:28:42.128Z,1014.57
2018-04-20T04:29:42.122Z,1014.57
2018-04-20T04:30:42.084Z,1014.55
2018-04-20T04:31:42.092Z,1014.52
2018-04-20T04:32:42.119Z,1014.57
2018-04-20T04:33:42.104Z,1014.56
2018-04-20T04:34:41.993Z,1014.52
2018-04-20T04:35:42.111Z,1014.54
2018-04-20T04:36:42.067Z,1014.53
2018-04-20T04:37:42.116Z,1014.57
2018-04-20T04:38:42.061Z,1014.57
2018-04-20T04:39:42.109Z,1014.54
2018-04-20T04:40:42.088Z,1014.53
2018-04-20T04:41:42.110Z,1014.57
2018-04-20T04:42:42.031Z,1014.52
2018-04-20T04:43:42.152Z,1014.50
2018-04-20T04:44:42.146Z,1014.53
2018-04-20T04:45:42.225Z,1014.51
2018-04-20T04:46:42.104Z,1014.51
2018-04-20T04:47:42.114Z,1014.52
2018-04-20T04:48:42.143Z,1014.54
2018-04-20T04:49:42.053Z,1014.54
2018-04-20T04:50:42.113Z,1014.52
2018-04-20T04:51:42.055Z,1014.47
2018-04-20T04:52:42.054Z,1014.47
2018-04-20T04:53:42.131Z,1014.49
2018-04-20T04:54:42.039Z,1014.49
2018-04-20T04:55:42.131Z,1014.51
2018-04-20T04:56:42.126Z,1014.49
2018-04-20T04:57:42.055Z,1014.52
2018-04-20T04:58:42.142Z,1014.48
2018-04-20T04:59:42.044Z,1014.47
2018-04-20T05:00:42.098Z,1014.48
2018-04-20T05:01:42.127Z,1014.45
2018-04-20T05:02:42.063Z,1014.46
2018-04-20T05:03:42.002Z,1014.47
2018-04-20T05:04:41.999Z,1014.46
2018-04-20T05:05:42.048Z,1014.45
2018-04-20T05:06:42.050Z,1014.46
2018-04-20T05:07:42.047Z,1014.45
2018-04-20T05:08:42.097Z,1014.47
2018-04-20T05:09:42.002Z,1014.43
2018-04-20T05:10:42.005Z,1014.48
2018-04-20T05:11:42.002Z,1014.46
2018-04-20T05:12:42.115Z,1014.47
2018-04-20T05:13:42.093Z,1014.48
2018-04-20T05:14:42.143Z,1014.51
2018-04-20T05:15:42.142Z,1014.49
2018-04-20T05:16:42.056Z,1014.49
2018-04-20T05:17:42.111Z,1014.51
2018-04-20T05:18:42.145Z,1014.50
2018-04-20T05:19:42.072Z,1014.45
2018-04-20T05:20:42.059Z,1014.48
2018-04-20T05:21:42.075Z,1014.48
2018-04-20T05:22:42.098Z,1014.49
2018-04-20T05:23:42.145Z,1014.49
2018-04-20T05:24:42.045Z,1014.51
2018-04-20T05:25:42.138Z,1014.49
2018-04-20T05:26:42.145Z,1014.50
2018-04-20T05:27:42.082Z,1014.47
2018-04-20T05:28:42.034Z,1014.47
2018-04-20T05:29:42.090Z,1014.47
2018-04-20T05:30:42.100Z,1014.47
2018-04-20T05:31:42.096Z,1014.46
2018-04-20T05:32:42.145Z,1014.47
2018-04-20T05:33:42.063Z,1014.47
2018-04-20T05:34:42.166Z,1014.47
2018-04-20T05:35:42.093Z,1014.48
2018-04-20T05:36:42.167Z,1014.47
2018-04-20T05:37:42.094Z,1014.49
2018-04-20T05:38:42.100Z,1014.51
2018-04-20T05:39:42.095Z,1014.51
2018-04-20T05:40:42.129Z,1014.51
2018-04-20T05:41:42.167Z,1014.55
2018-04-20T05:42:42.167Z,1014.53
2018-04-20T05:43:42.174Z,1014.53
2018-04-20T05:44:42.224Z,1014.51
2018-04-20T05:45:42.148Z,1014.51
2018-04-20T05:46:42.193Z,1014.52
2018-04-20T05:47:42.144Z,1014.52
2018-04-20T05:48:42.171Z,1014.52
2018-04-20T05:49:42.126Z,1014.45
2018-04-20T05:50:42.156Z,1014.49
2018-04-20T05:51:42.172Z,1014.47
2018-04-20T05:52:42.179Z,1014.43
2018-04-20T05:53:42.140Z,1014.43
2018-04-20T05:54:42.105Z,1014.43
2018-04-20T05:55:42.163Z,1014.45
2018-04-20T05:56:42.141Z,1014.45
2018-04-20T05:57:42.081Z,1014.45
2018-04-20T05:58:42.163Z,1014.46
2018-04-20T05:59:42.138Z,1014.44
2018-04-20T06:00:42.173Z,1014.48
2018-04-20T06:01:42.170Z,1014.44
2018-04-20T06:02:42.123Z,1014.43
2018-04-20T06:03:42.173Z,1014.41
2018-04-20T06:04:42.104Z,1014.43
2018-04-20T06:05:42.162Z,1014.40
2018-04-20T06:06:42.181Z,1014.37
2018-04-20T06:07:42.223Z,1014.38
2018-04-20T06:08:42.266Z,1014.36
2018-04-20T06:09:42.206Z,1014.32
2018-04-20T06:10:42.154Z,1014.37
2018-04-20T06:11:42.226Z,1014.35
2018-04-20T06:12:42.181Z,1014.35
2018-04-20T06:13:42.122Z,1014.35
2018-04-20T06:14:42.117Z,1014.35
2018-04-20T06:15:42.232Z,1014.36
2018-04-20T06:16:42.189Z,1014.35
2018-04-20T06:17:42.234Z,1014.34
2018-04-20T06:18:42.120Z,1014.30
2018-04-20T06:19:42.228Z,1014.32
2018-04-20T06:20:42.125Z,1014.31
2018-04-20T06:21:42.195Z,1014.33
2018-04-20T06:22:42.081Z,1014.27
2018-04-20T06:23:42.122Z,1014.31
2018-04-20T06:24:42.194Z,1014.30
2018-04-20T06:25:42.198Z,1014.32
2018-04-20T06:26:42.133Z,1014.32
2018-04-20T06:27:42.196Z,1014.30
2018-04-20T06:28:42.125Z,1014.25
2018-04-20T06:29:42.222Z,1014.27
2018-04-20T06:30:42.204Z,1014.24
2018-04-20T06:31:42.129Z,1014.25
2018-04-20T06:32:42.129Z,1014.24
2018-04-20T06:33:42.199Z,1014.23
2018-04-20T06:34:42.158Z,1014.25
2018-04-20T06:35:42.126Z,1014.22
2018-04-20T06:36:42.086Z,1014.24
2018-04-20T06:37:42.195Z,1014.21
2018-04-20T06:38:42.194Z,1014.18
2018-04-20T06:39:42.198Z,1014.17
2018-04-20T06:40:42.196Z,1014.21
2018-04-20T06:41:42.238Z,1014.20
2018-04-20T06:42:42.124Z,1014.19
2018-04-20T06:43:42.108Z,1014.21
2018-04-20T06:44:42.213Z,1014.20
2018-04-20T06:45:42.135Z,1014.20
2018-04-20T06:46:42.211Z,1014.22
2018-04-20T06:47:42.245Z,1014.21
2018-04-20T06:48:42.139Z,1014.18
2018-04-20T06:49:42.212Z,1014.17
2018-04-20T06:50:42.211Z,1014.19
2018-04-20T06:51:42.213Z,1014.18
2018-04-20T06:52:42.141Z,1014.19
2018-04-20T06:53:42.217Z,1014.17
2018-04-20T06:54:42.177Z,1014.15
2018-04-20T06:55:42.244Z,1014.13
2018-04-20T06:56:42.241Z,1014.13
2018-04-20T06:57:42.232Z,1014.10
2018-04-20T06:58:42.120Z,1014.15
2018-04-20T06:59:42.133Z,1014.09
2018-04-20T07:00:42.158Z,1014.01
2018-04-20T07:01:42.253Z,1014.04
2018-04-20T07:02:42.141Z,1014.05
2018-04-20T07:03:42.242Z,1014.09
2018-04-20T07:04:42.221Z,1014.12
2018-04-20T07:05:42.183Z,1014.09
2018-04-20T07:06:42.240Z,1014.09
2018-04-20T07:07:42.284Z,1014.08
2018-04-20T07:08:42.219Z,1014.11
2018-04-20T07:09:42.261Z,1014.08
2018-04-20T07:10:42.259Z,1014.08
2018-04-20T07:11:42.242Z,1014.06
2018-04-20T07:12:42.194Z,1014.06
2018-04-20T07:13:42.245Z,1014.06
2018-04-20T07:14:42.224Z,1014.09
2018-04-20T07:15:42.143Z,1014.09
2018-04-20T07:16:42.221Z,1014.05
2018-04-20T07:17:42.219Z,1014.07
2018-04-20T07:18:42.219Z,1014.02
2018-04-20T07:19:42.174Z,1014.00
2018-04-20T07:20:42.229Z,1014.02
2018-04-20T07:21:42.155Z,1013.97
2018-04-20T07:22:42.103Z,1013.96
2018-04-20T07:23:42.199Z,1013.94
2018-04-20T07:24:42.265Z,1013.98
2018-04-20T07:25:42.155Z,1013.97
2018-04-20T07:26:42.238Z,1013.99
2018-04-20T07:27:42.251Z,1013.95
2018-04-20T07:28:42.258Z,1013.95
2018-04-20T07:29:42.197Z,1013.95
2018-04-20T07:30:42.153Z,1013.98
2018-04-20T07:31:42.240Z,1013.95
2018-04-20T07:32:42.160Z,1013.94
2018-04-20T07:33:42.267Z,1013.89
2018-04-20T07:34:42.206Z,1013.91
2018-04-20T07:35:42.196Z,1013.87
2018-04-20T07:36:42.160Z,1013.89
2018-04-20T07:37:42.242Z,1013.93
2018-04-20T07:38:42.279Z,1013.88
2018-04-20T07:39:42.294Z,1013.90
2018-04-20T07:40:42.265Z,1013.87
2018-04-20T07:41:42.158Z,1013.90
2018-04-20T07:42:42.220Z,1013.84
2018-04-20T07:43:42.288Z,1013.86
2018-04-20T07:44:42.248Z,1013.89
2018-04-20T07:45:42.174Z,1013.88
2018-04-20T07:46:42.248Z,1013.89
2018-04-20T07:47:42.240Z,1013.84
2018-04-20T07:48:42.177Z,1013.85
2018-04-20T07:49:42.179Z,1013.84
2018-04-20T07:50:42.177Z,1013.83
2018-04-20T07:51:42.249Z,1013.84
2018-04-20T07:52:42.178Z,1013.87
2018-04-20T07:53:42.269Z,1013.82
2018-04-20T07:54:42.183Z,1013.82
2018-04-20T07:55:42.183Z,1013.80
2018-04-20T07:56:42.264Z,1013.83
2018-04-20T07:57:42.254Z,1013.84
2018-04-20T07:58:42.255Z,1013.84
2018-04-20T07:59:42.185Z,1013.84
2018-04-20T08:00:42.262Z,1013.82
2018-04-20T08:01:42.186Z,1013.83
2018-04-20T08:02:42.184Z,1013.82
2018-04-20T08:03:42.151Z,1013.83
2018-04-20T08:04:42.232Z,1013.80
2018-04-20T08:05:42.281Z,1013.73
2018-04-20T08:06:42.281Z,1013.75
2018-04-20T08:07:42.176Z,1013.73
2018-04-20T08:08:42.227Z,1013.74
2018-04-20T08:09:42.159Z,1013.77
2018-04-20T08:10:42.333Z,1013.75
2018-04-20T08:11:42.219Z,1013.74
2018-04-20T08:12:42.294Z,1013.77
2018-04-20T08:13:42.189Z,1013.78
2018-04-20T08:14:42.168Z,1013.70
2018-04-20T08:15:42.137Z,1013.74
2018-04-20T08:16:42.256Z,1013.73
2018-04-20T08:17:42.258Z,1013.72
2018-04-20T08:18:42.140Z,1013.71
2018-04-20T08:19:42.227Z,1013.71
2018-04-20T08:20:42.172Z,1013.71
2018-04-20T08:21:42.139Z,1013.70
2018-04-20T08:22:42.236Z,1013.71
2018-04-20T08:23:42.192Z,1013.70
2018-04-20T08:24:42.293Z,1013.67
2018-04-20T08:25:42.268Z,1013.71
2018-04-20T08:26:42.296Z,1013.68
2018-04-20T08:27:42.268Z,1013.71
2018-04-20T08:28:42.244Z,1013.73
2018-04-20T08:29:42.233Z,1013.72
2018-04-20T08:30:42.311Z,1013.72
2018-04-20T08:31:42.233Z,1013.71
2018-04-20T08:32:42.270Z,1013.70
2018-04-20T08:33:42.241Z,1013.70
2018-04-20T08:34:42.283Z,1013.70
2018-04-20T08:35:42.314Z,1013.72
2018-04-20T08:36:42.295Z,1013.72
2018-04-20T08:37:42.273Z,1013.69
2018-04-20T08:38:42.281Z,1013.73
2018-04-20T08:39:42.214Z,1013.70
2018-04-20T08:40:42.316Z,1013.66
2018-04-20T08:41:42.300Z,1013.67
2018-04-20T08:42:42.242Z,1013.70
2018-04-20T08:43:42.281Z,1013.67
2018-04-20T08:44:42.239Z,1013.70
2018-04-20T08:45:42.207Z,1013.70
2018-04-20T08:46:42.276Z,1013.69
2018-04-20T08:47:42.203Z,1013.72
2018-04-20T08:48:42.256Z,1013.66
2018-04-20T08:49:42.260Z,1013.66
2018-04-20T08:50:42.289Z,1013.64
2018-04-20T08:51:42.287Z,1013.65
2018-04-20T08:52:42.261Z,1013.63
2018-04-20T08:53:42.224Z,1013.63
2018-04-20T08:54:42.294Z,1013.64
2018-04-20T08:55:42.219Z,1013.62
2018-04-20T08:56:42.222Z,1013.64
2018-04-20T08:57:42.285Z,1013.61
2018-04-20T08:58:42.223Z,1013.63
2018-04-20T08:59:42.222Z,1013.63
2018-04-20T09:00:42.294Z,1013.65
2018-04-20T09:01:42.257Z,1013.62
2018-04-20T09:02:42.296Z,1013.62
2018-04-20T09:03:42.225Z,1013.62
2018-04-20T09:04:42.199Z,1013.62
2018-04-20T09:05:42.294Z,1013.60
2018-04-20T09:06:42.230Z,1013.65
2018-04-20T09:07:42.296Z,1013.64
2018-04-20T09:08:42.237Z,1013.61
2018-04-20T09:09:42.265Z,1013.62
2018-04-20T09:10:42.309Z,1013.59
2018-04-20T09:11:42.276Z,1013.57
2018-04-20T09:12:42.318Z,1013.59
2018-04-20T09:13:42.267Z,1013.55
2018-04-20T09:14:42.205Z,1013.53
2018-04-20T09:15:42.300Z,1013.55
2018-04-20T09:16:42.298Z,1013.56
2018-04-20T09:17:42.206Z,1013.51
2018-04-20T09:18:42.327Z,1013.50
2018-04-20T09:19:42.336Z,1013.50
2018-04-20T09:20:42.337Z,1013.48
2018-04-20T09:21:42.242Z,1013.47
2018-04-20T09:22:42.341Z,1013.43
2018-04-20T09:23:42.302Z,1013.45
2018-04-20T09:24:42.209Z,1013.47
2018-04-20T09:25:42.298Z,1013.50
2018-04-20T09:26:42.196Z,1013.47
2018-04-20T09:27:42.303Z,1013.40
2018-04-20T09:28:42.182Z,1013.38
2018-04-20T09:29:42.296Z,1013.39
2018-04-20T09:30:42.307Z,1013.36
2018-04-20T09:31:42.234Z,1013.36
2018-04-20T09:32:42.198Z,1013.36
2018-04-20T09:33:42.306Z,1013.34
2018-04-20T09:34:42.313Z,1013.32
2018-04-20T09:35:42.291Z,1013.32
2018-04-20T09:36:42.232Z,1013.29
2018-04-20T09:37:42.235Z,1013.27
2018-04-20T09:38:42.352Z,1013.27
2018-04-20T09:39:42.381Z,1013.25
2018-04-20T09:40:42.353Z,1013.25
2018-04-20T09:41:42.222Z,1013.23
2018-04-20T09:42:42.315Z,1013.20
2018-04-20T09:43:42.313Z,1013.18
2018-04-20T09:44:42.313Z,1013.17
2018-04-20T09:45:42.313Z,1013.14
2018-04-20T09:46:42.313Z,1013.14
2018-04-20T09:47:42.194Z,1013.15
2018-04-20T09:48:42.310Z,1013.17
2018-04-20T09:49:42.189Z,1013.16
2018-04-20T09:50:42.266Z,1013.12
2018-04-20T09:51:42.314Z,1013.17
2018-04-20T09:52:42.211Z,1013.17
2018-04-20T09:53:42.316Z,1013.17
2018-04-20T09:54:42.361Z,1013.11
2018-04-20T09:55:42.215Z,1013.14
2018-04-20T09:56:42.262Z,1013.14
2018-04-20T09:57:42.329Z,1013.17
2018-04-20T09:58:42.257Z,1013.18
2018-04-20T09:59:42.261Z,1013.14
2018-04-20T10:00:42.261Z,1013.13
2018-04-20T10:01:42.260Z,1013.12
2018-04-20T10:02:42.330Z,1013.12
2018-04-20T10:03:42.261Z,1013.13
2018-04-20T10:04:42.305Z,1013.09
2018-04-20T10:05:42.305Z,1013.14
2018-04-20T10:06:42.363Z,1013.10
2018-04-20T10:07:42.381Z,1013.08
2018-04-20T10:08:42.350Z,1013.12
2018-04-20T10:09:42.357Z,1013.09
2018-04-20T10:10:42.261Z,1013.07
2018-04-20T10:11:42.261Z,1013.09
2018-04-20T10:12:42.241Z,1013.03
2018-04-20T10:13:42.359Z,1013.03
2018-04-20T10:14:42.271Z,1013.03
2018-04-20T10:15:42.313Z,1013.02
2018-04-20T10:16:42.209Z,1013.01
2018-04-20T10:17:42.232Z,1013.00
2018-04-20T10:18:42.205Z,1013.00
2018-04-20T10:19:42.211Z,1012.98
2018-04-20T10:20:42.211Z,1013.00
2018-04-20T10:21:42.241Z,1012.97
2018-04-20T10:22:42.327Z,1012.97
2018-04-20T10:23:42.329Z,1012.94
2018-04-20T10:24:42.315Z,1012.95
2018-04-20T10:25:42.371Z,1012.98
2018-04-20T10:26:42.367Z,1012.92
2018-04-20T10:27:42.353Z,1012.94
2018-04-20T10:28:42.379Z,1012.92
2018-04-20T10:29:42.374Z,1012.92
2018-04-20T10:30:42.349Z,1012.90
2018-04-20T10:31:42.350Z,1012.81
2018-04-20T10:32:42.318Z,1012.88
2018-04-20T10:33:42.362Z,1012.84
2018-04-20T10:34:42.375Z,1012.86
2018-04-20T10:35:42.410Z,1012.84
2018-04-20T10:36:42.347Z,1012.81
2018-04-20T10:37:42.254Z,1012.81
2018-04-20T10:38:42.288Z,1012.79
2018-04-20T10:39:42.311Z,1012.79
2018-04-20T10:40:42.329Z,1012.82
2018-04-20T10:41:42.315Z,1012.81
2018-04-20T10:42:42.352Z,1012.76
2018-04-20T10:43:42.356Z,1012.77
2018-04-20T10:44:42.316Z,1012.74
2018-04-20T10:45:42.379Z,1012.75
2018-04-20T10:46:42.336Z,1012.72
2018-04-20T10:47:42.386Z,1012.68
2018-04-20T10:48:42.443Z,1012.67
2018-04-20T10:49:42.323Z,1012.70
2018-04-20T10:50:42.357Z,1012.69
2018-04-20T10:51:42.336Z,1012.67
2018-04-20T10:52:42.393Z,1012.64
2018-04-20T10:53:42.278Z,1012.59
2018-04-20T10:54:42.296Z,1012.57
2018-04-20T10:55:42.284Z,1012.61
2018-04-20T10:56:42.404Z,1012.54
2018-04-20T10:57:42.268Z,1012.57
2018-04-20T10:58:42.289Z,1012.53
2018-04-20T10:59:42.363Z,1012.54
2018-04-20T11:00:42.270Z,1012.49
2018-04-20T11:01:42.340Z,1012.51
2018-04-20T11:02:42.366Z,1012.52
2018-04-20T11:03:42.425Z,1012.52
2018-04-20T11:04:42.384Z,1012.51
2018-04-20T11:05:42.361Z,1012.53
2018-04-20T11:06:42.329Z,1012.48
2018-04-20T11:07:42.270Z,1012.48
2018-04-20T11:08:42.368Z,1012.44
2018-04-20T11:09:42.332Z,1012.40
2018-04-20T11:10:42.347Z,1012.44
2018-04-20T11:11:42.346Z,1012.36
2018-04-20T11:12:42.347Z,1012.32
2018-04-20T11:13:42.372Z,1012.37
2018-04-20T11:14:42.392Z,1012.38
2018-04-20T11:15:42.398Z,1012.35
2018-04-20T11:16:42.400Z,1012.33
2018-04-20T11:17:42.276Z,1012.36
2018-04-20T11:18:42.341Z,1012.32
2018-04-20T11:19:42.418Z,1012.30
2018-04-20T11:20:42.334Z,1012.27
2018-04-20T11:21:42.282Z,1012.28
2018-04-20T11:22:42.286Z,1012.24
2018-04-20T11:23:42.439Z,1012.27
2018-04-20T11:24:42.397Z,1012.24
2018-04-20T11:25:42.339Z,1012.24
2018-04-20T11:26:42.363Z,1012.21
2018-04-20T11:27:42.348Z,1012.24
2018-04-20T11:28:42.282Z,1012.21
2018-04-20T11:29:42.337Z,1012.20
2018-04-20T11:30:42.404Z,1012.19
2018-04-20T11:31:42.425Z,1012.19
2018-04-20T11:32:42.353Z,1012.16
2018-04-20T11:33:42.292Z,1012.17
2018-04-20T11:34:42.302Z,1012.12
2018-04-20T11:35:42.342Z,1012.14
2018-04-20T11:36:42.357Z,1012.10
2018-04-20T11:37:42.286Z,1012.12
2018-04-20T11:38:42.405Z,1012.12
2018-04-20T11:39:42.360Z,1012.07
2018-04-20T11:40:42.414Z,1012.11
2018-04-20T11:41:42.387Z,1012.06
2018-04-20T11:42:42.383Z,1012.05
2018-04-20T11:43:42.370Z,1012.06
2018-04-20T11:44:42.344Z,1012.07
2018-04-20T11:45:42.472Z,1012.05
2018-04-20T11:46:42.295Z,1012.06
2018-04-20T11:47:42.379Z,1012.03
2018-04-20T11:48:42.297Z,1012.04
2018-04-20T11:49:42.374Z,1012.04
2018-04-20T11:50:42.382Z,1012.00
2018-04-20T11:51:42.385Z,1012.04
2018-04-20T11:52:42.412Z,1012.01
2018-04-20T11:53:42.427Z,1012.00
2018-04-20T11:54:42.295Z,1011.96
2018-04-20T11:55:42.427Z,1011.96
2018-04-20T11:56:42.360Z,1012.00
2018-04-20T11:57:42.428Z,1011.94
2018-04-20T11:58:42.437Z,1012.00
2018-04-20T11:59:42.419Z,1011.94
2018-04-20T12:00:42.357Z,1011.95
2018-04-20T12:01:42.374Z,1011.93
2018-04-20T12:02:42.424Z,1011.88
2018-04-20T12:03:42.405Z,1011.86
2018-04-20T12:04:42.436Z,1011.87
2018-04-20T12:05:42.367Z,1011.89